sensor_id;sensor_type;location;lat;lon;timestamp;temperature;humidity
22629;DHT22;11481;53.694;9.910;2024-02-14T00:00:50;7.40;99.90
22629;DHT22;11481;53.694;9.910;2024-02-14T00:03:17;7.40;99.90
22629;DHT22;11481;53.694;9.910;2024-02-14T00:05:44;7.30;99.90
22629;DHT22;11481;53.694;9.910;2024-02-14T00:08:11;7.30;99.90
22629;DHT22;11481;53.694;9.910;2024-02-14T00:10:41;7.30;99.90
22629;DHT22;11481;53.694;9.910;2024-02-14T00:13:10;7.30;99.90
22629;DHT22;11481;53.694;9.910;2024-02-14T00:15:37;8.10;99.90
22629;DHT22;11481;53.694;9.910;2024-02-14T00:18:04;7.20;99.90
22629;DHT22;11481;53.694;9.910;2024-02-14T00:20:31;7.10;99.90
22629;DHT22;11481;53.694;9.910;2024-02-14T00:22:59;7.10;99.90
22629;DHT22;11481;53.694;9.910;2024-02-14T00:25:25;7.10;99.90
22629;DHT22;11481;53.694;9.910;2024-02-14T00:27:52;7.20;99.90
22629;DHT22;11481;53.694;9.910;2024-02-14T00:30:20;7.10;99.90
22629;DHT22;11481;53.694;9.910;2024-02-14T00:32:50;7.20;99.90
22629;DHT22;11481;53.694;9.910;2024-02-14T00:35:17;7.20;99.90
22629;DHT22;11481;53.694;9.910;2024-02-14T00:37:44;7.10;99.90
22629;DHT22;11481;53.694;9.910;2024-02-14T00:40:11;7.10;99.90
22629;DHT22;11481;53.694;9.910;2024-02-14T00:42:38;7.10;99.90
22629;DHT22;11481;53.694;9.910;2024-02-14T00:45:06;7.10;99.90
22629;DHT22;11481;53.694;9.910;2024-02-14T00:47:35;7.10;99.90
22629;DHT22;11481;53.694;9.910;2024-02-14T00:50:03;7.10;99.90
22629;DHT22;11481;53.694;9.910;2024-02-14T00:52:30;7.10;99.90
22629;DHT22;11481;53.694;9.910;2024-02-14T00:54:56;7.10;99.90
22629;DHT22;11481;53.694;9.910;2024-02-14T00:57:23;7.10;99.90
22629;DHT22;11481;53.694;9.910;2024-02-14T00:59:53;7.10;99.90
22629;DHT22;11481;53.694;9.910;2024-02-14T01:02:20;7.10;99.90
22629;DHT22;11481;53.694;9.910;2024-02-14T01:04:47;7.20;99.90
22629;DHT22;11481;53.694;9.910;2024-02-14T01:07:14;7.20;99.90
22629;DHT22;11481;53.694;9.910;2024-02-14T01:09:41;7.20;99.90
22629;DHT22;11481;53.694;9.910;2024-02-14T01:12:08;7.20;99.90
22629;DHT22;11481;53.694;9.910;2024-02-14T01:14:34;7.30;99.90
22629;DHT22;11481;53.694;9.910;2024-02-14T01:17:01;7.20;99.90
22629;DHT22;11481;53.694;9.910;2024-02-14T01:19:30;7.20;99.90
22629;DHT22;11481;53.694;9.910;2024-02-14T01:21:57;7.20;99.90
22629;DHT22;11481;53.694;9.910;2024-02-14T01:24:24;7.20;99.90
22629;DHT22;11481;53.694;9.910;2024-02-14T01:26:53;7.20;99.90
22629;DHT22;11481;53.694;9.910;2024-02-14T01:29:21;7.20;99.90
22629;DHT22;11481;53.694;9.910;2024-02-14T01:31:49;7.20;99.90
22629;DHT22;11481;53.694;9.910;2024-02-14T01:34:16;7.30;99.90
22629;DHT22;11481;53.694;9.910;2024-02-14T01:36:43;7.30;99.90
22629;DHT22;11481;53.694;9.910;2024-02-14T01:39:10;7.30;99.90
22629;DHT22;11481;53.694;9.910;2024-02-14T01:41:38;7.30;99.90
22629;DHT22;11481;53.694;9.910;2024-02-14T01:44:05;7.30;99.90
22629;DHT22;11481;53.694;9.910;2024-02-14T01:46:32;7.30;99.90
22629;DHT22;11481;53.694;9.910;2024-02-14T01:48:59;7.30;99.90
22629;DHT22;11481;53.694;9.910;2024-02-14T01:51:26;7.30;99.90
22629;DHT22;11481;53.694;9.910;2024-02-14T01:53:53;7.40;99.90
22629;DHT22;11481;53.694;9.910;2024-02-14T01:56:21;7.40;99.90
22629;DHT22;11481;53.694;9.910;2024-02-14T01:58:48;8.70;99.90
22629;DHT22;11481;53.694;9.910;2024-02-14T02:01:15;7.40;99.90
22629;DHT22;11481;53.694;9.910;2024-02-14T02:03:44;7.40;99.90
22629;DHT22;11481;53.694;9.910;2024-02-14T02:06:11;7.40;99.90
22629;DHT22;11481;53.694;9.910;2024-02-14T02:08:38;7.40;99.90
22629;DHT22;11481;53.694;9.910;2024-02-14T02:11:05;7.40;99.90
22629;DHT22;11481;53.694;9.910;2024-02-14T02:13:33;7.40;99.90
22629;DHT22;11481;53.694;9.910;2024-02-14T02:15:59;7.40;99.90
22629;DHT22;11481;53.694;9.910;2024-02-14T02:18:27;7.40;99.90
22629;DHT22;11481;53.694;9.910;2024-02-14T02:20:54;7.40;99.90
22629;DHT22;11481;53.694;9.910;2024-02-14T02:23:21;7.40;99.90
22629;DHT22;11481;53.694;9.910;2024-02-14T02:25:48;7.40;99.90
22629;DHT22;11481;53.694;9.910;2024-02-14T02:28:15;7.30;99.90
22629;DHT22;11481;53.694;9.910;2024-02-14T02:30:41;7.30;99.90
22629;DHT22;11481;53.694;9.910;2024-02-14T02:33:08;7.30;99.90
22629;DHT22;11481;53.694;9.910;2024-02-14T02:35:42;7.30;99.90
22629;DHT22;11481;53.694;9.910;2024-02-14T02:38:08;7.30;99.90
22629;DHT22;11481;53.694;9.910;2024-02-14T02:40:35;7.30;99.90
22629;DHT22;11481;53.694;9.910;2024-02-14T02:43:02;7.30;99.90
22629;DHT22;11481;53.694;9.910;2024-02-14T02:45:29;7.30;99.90
22629;DHT22;11481;53.694;9.910;2024-02-14T02:47:56;7.30;99.90
22629;DHT22;11481;53.694;9.910;2024-02-14T02:50:23;7.30;99.90
22629;DHT22;11481;53.694;9.910;2024-02-14T02:52:49;7.30;99.90
22629;DHT22;11481;53.694;9.910;2024-02-14T02:55:16;7.20;99.90
22629;DHT22;11481;53.694;9.910;2024-02-14T02:57:44;7.20;99.90
22629;DHT22;11481;53.694;9.910;2024-02-14T03:00:12;7.20;99.90
22629;DHT22;11481;53.694;9.910;2024-02-14T03:02:40;7.10;99.90
22629;DHT22;11481;53.694;9.910;2024-02-14T03:05:12;7.20;99.90
22629;DHT22;11481;53.694;9.910;2024-02-14T03:07:45;7.10;99.90
22629;DHT22;11481;53.694;9.910;2024-02-14T03:10:11;7.20;99.90
22629;DHT22;11481;53.694;9.910;2024-02-14T03:12:49;7.20;99.90
22629;DHT22;11481;53.694;9.910;2024-02-14T03:15:16;7.10;99.90
22629;DHT22;11481;53.694;9.910;2024-02-14T03:17:43;7.10;99.90
22629;DHT22;11481;53.694;9.910;2024-02-14T03:20:12;7.20;99.90
22629;DHT22;11481;53.694;9.910;2024-02-14T03:22:44;7.10;99.90
22629;DHT22;11481;53.694;9.910;2024-02-14T03:25:17;7.00;99.90
22629;DHT22;11481;53.694;9.910;2024-02-14T03:27:44;7.00;99.90
22629;DHT22;11481;53.694;9.910;2024-02-14T03:30:13;6.90;99.90
22629;DHT22;11481;53.694;9.910;2024-02-14T03:32:43;7.00;99.90
22629;DHT22;11481;53.694;9.910;2024-02-14T03:35:10;7.00;99.90
22629;DHT22;11481;53.694;9.910;2024-02-14T03:37:37;7.00;99.90
22629;DHT22;11481;53.694;9.910;2024-02-14T03:40:06;6.90;99.90
22629;DHT22;11481;53.694;9.910;2024-02-14T03:42:34;6.90;99.90
22629;DHT22;11481;53.694;9.910;2024-02-14T03:45:01;6.90;99.90
22629;DHT22;11481;53.694;9.910;2024-02-14T03:47:32;6.90;99.90
22629;DHT22;11481;53.694;9.910;2024-02-14T03:49:59;6.80;99.90
22629;DHT22;11481;53.694;9.910;2024-02-14T03:52:26;6.90;99.90
22629;DHT22;11481;53.694;9.910;2024-02-14T03:54:54;7.70;99.90
22629;DHT22;11481;53.694;9.910;2024-02-14T03:57:21;6.90;99.90
22629;DHT22;11481;53.694;9.910;2024-02-14T03:59:47;6.80;99.90
22629;DHT22;11481;53.694;9.910;2024-02-14T04:02:14;6.80;99.90
22629;DHT22;11481;53.694;9.910;2024-02-14T04:04:42;6.80;99.90
22629;DHT22;11481;53.694;9.910;2024-02-14T04:07:08;6.80;99.90
22629;DHT22;11481;53.694;9.910;2024-02-14T04:09:35;6.80;99.90
22629;DHT22;11481;53.694;9.910;2024-02-14T04:12:02;6.80;99.90
22629;DHT22;11481;53.694;9.910;2024-02-14T04:14:29;6.80;99.90
22629;DHT22;11481;53.694;9.910;2024-02-14T04:16:56;6.80;99.90
22629;DHT22;11481;53.694;9.910;2024-02-14T04:19:22;6.80;99.90
22629;DHT22;11481;53.694;9.910;2024-02-14T04:21:49;6.80;99.90
22629;DHT22;11481;53.694;9.910;2024-02-14T04:24:17;7.60;99.90
22629;DHT22;11481;53.694;9.910;2024-02-14T04:26:43;6.80;99.90
22629;DHT22;11481;53.694;9.910;2024-02-14T04:29:10;6.80;99.90
22629;DHT22;11481;53.694;9.910;2024-02-14T04:31:37;6.70;99.90
22629;DHT22;11481;53.694;9.910;2024-02-14T04:34:04;6.70;99.90
22629;DHT22;11481;53.694;9.910;2024-02-14T04:36:31;6.70;99.90
22629;DHT22;11481;53.694;9.910;2024-02-14T04:39:01;6.70;99.90
22629;DHT22;11481;53.694;9.910;2024-02-14T04:41:28;6.70;99.90
22629;DHT22;11481;53.694;9.910;2024-02-14T04:43:55;6.70;99.90
22629;DHT22;11481;53.694;9.910;2024-02-14T04:46:21;6.80;99.90
22629;DHT22;11481;53.694;9.910;2024-02-14T04:48:48;6.70;99.90
22629;DHT22;11481;53.694;9.910;2024-02-14T04:51:15;6.70;99.90
22629;DHT22;11481;53.694;9.910;2024-02-14T04:53:42;6.70;99.90
22629;DHT22;11481;53.694;9.910;2024-02-14T04:56:09;6.80;99.90
22629;DHT22;11481;53.694;9.910;2024-02-14T04:58:36;6.80;99.90
22629;DHT22;11481;53.694;9.910;2024-02-14T05:01:02;6.70;99.90
22629;DHT22;11481;53.694;9.910;2024-02-14T05:03:29;6.70;99.90
22629;DHT22;11481;53.694;9.910;2024-02-14T05:05:56;6.70;99.90
22629;DHT22;11481;53.694;9.910;2024-02-14T05:08:24;8.30;99.90
22629;DHT22;11481;53.694;9.910;2024-02-14T05:10:51;6.80;99.90
22629;DHT22;11481;53.694;9.910;2024-02-14T05:13:18;6.70;99.90
22629;DHT22;11481;53.694;9.910;2024-02-14T05:15:44;6.70;99.90
22629;DHT22;11481;53.694;9.910;2024-02-14T05:18:11;8.10;99.90
22629;DHT22;11481;53.694;9.910;2024-02-14T05:20:38;6.70;99.90
22629;DHT22;11481;53.694;9.910;2024-02-14T05:23:05;6.70;99.90
22629;DHT22;11481;53.694;9.910;2024-02-14T05:25:32;6.70;99.90
22629;DHT22;11481;53.694;9.910;2024-02-14T05:28:00;6.70;99.90
22629;DHT22;11481;53.694;9.910;2024-02-14T05:30:27;6.80;99.90
22629;DHT22;11481;53.694;9.910;2024-02-14T05:32:55;6.70;99.90
22629;DHT22;11481;53.694;9.910;2024-02-14T05:35:22;6.70;99.90
22629;DHT22;11481;53.694;9.910;2024-02-14T05:37:49;6.80;99.90
22629;DHT22;11481;53.694;9.910;2024-02-14T05:40:16;6.80;99.90
22629;DHT22;11481;53.694;9.910;2024-02-14T05:42:43;6.80;99.90
22629;DHT22;11481;53.694;9.910;2024-02-14T05:45:12;6.80;99.90
22629;DHT22;11481;53.694;9.910;2024-02-14T05:47:39;6.80;99.90
22629;DHT22;11481;53.694;9.910;2024-02-14T05:50:07;6.80;99.90
22629;DHT22;11481;53.694;9.910;2024-02-14T05:52:35;6.80;99.90
22629;DHT22;11481;53.694;9.910;2024-02-14T05:55:02;7.10;99.90
22629;DHT22;11481;53.694;9.910;2024-02-14T05:57:29;6.80;99.90
22629;DHT22;11481;53.694;9.910;2024-02-14T05:59:56;6.80;99.90
22629;DHT22;11481;53.694;9.910;2024-02-14T06:02:23;6.80;99.90
22629;DHT22;11481;53.694;9.910;2024-02-14T06:04:50;7.00;99.90
22629;DHT22;11481;53.694;9.910;2024-02-14T06:07:17;6.80;99.90
22629;DHT22;11481;53.694;9.910;2024-02-14T06:09:44;6.80;99.90
22629;DHT22;11481;53.694;9.910;2024-02-14T06:12:12;6.90;99.90
22629;DHT22;11481;53.694;9.910;2024-02-14T06:14:38;6.90;99.90
22629;DHT22;11481;53.694;9.910;2024-02-14T06:17:06;8.00;99.90
22629;DHT22;11481;53.694;9.910;2024-02-14T06:19:32;7.00;99.90
22629;DHT22;11481;53.694;9.910;2024-02-14T06:22:06;6.90;99.90
22629;DHT22;11481;53.694;9.910;2024-02-14T06:24:32;6.90;99.90
22629;DHT22;11481;53.694;9.910;2024-02-14T06:26:59;7.00;99.90
22629;DHT22;11481;53.694;9.910;2024-02-14T06:29:26;7.00;99.90
22629;DHT22;11481;53.694;9.910;2024-02-14T06:31:52;7.00;99.90
22629;DHT22;11481;53.694;9.910;2024-02-14T06:34:20;7.00;99.90
22629;DHT22;11481;53.694;9.910;2024-02-14T06:36:47;7.00;99.90
22629;DHT22;11481;53.694;9.910;2024-02-14T06:39:14;7.00;99.90
22629;DHT22;11481;53.694;9.910;2024-02-14T06:41:41;7.00;99.90
22629;DHT22;11481;53.694;9.910;2024-02-14T06:44:08;7.10;99.90
22629;DHT22;11481;53.694;9.910;2024-02-14T06:46:34;7.10;99.90
22629;DHT22;11481;53.694;9.910;2024-02-14T06:49:04;7.10;99.90
22629;DHT22;11481;53.694;9.910;2024-02-14T06:51:31;7.20;99.90
22629;DHT22;11481;53.694;9.910;2024-02-14T06:53:58;7.20;99.90
22629;DHT22;11481;53.694;9.910;2024-02-14T06:56:24;7.10;99.90
22629;DHT22;11481;53.694;9.910;2024-02-14T06:58:51;7.20;99.90
22629;DHT22;11481;53.694;9.910;2024-02-14T07:01:20;7.20;99.90
22629;DHT22;11481;53.694;9.910;2024-02-14T07:03:52;7.10;99.90
22629;DHT22;11481;53.694;9.910;2024-02-14T07:06:20;7.10;99.90
22629;DHT22;11481;53.694;9.910;2024-02-14T07:08:47;7.20;99.90
22629;DHT22;11481;53.694;9.910;2024-02-14T07:11:16;7.20;99.90
22629;DHT22;11481;53.694;9.910;2024-02-14T07:13:43;7.20;99.90
22629;DHT22;11481;53.694;9.910;2024-02-14T07:16:10;7.20;99.90
22629;DHT22;11481;53.694;9.910;2024-02-14T07:18:37;7.20;99.90
22629;DHT22;11481;53.694;9.910;2024-02-14T07:21:04;7.20;99.90
22629;DHT22;11481;53.694;9.910;2024-02-14T07:23:33;7.20;99.90
22629;DHT22;11481;53.694;9.910;2024-02-14T07:26:00;7.30;99.90
22629;DHT22;11481;53.694;9.910;2024-02-14T07:28:30;7.30;99.90
22629;DHT22;11481;53.694;9.910;2024-02-14T07:30:58;7.30;99.90
22629;DHT22;11481;53.694;9.910;2024-02-14T07:33:25;7.40;99.90
22629;DHT22;11481;53.694;9.910;2024-02-14T07:35:52;7.30;99.90
22629;DHT22;11481;53.694;9.910;2024-02-14T07:38:19;8.00;99.90
22629;DHT22;11481;53.694;9.910;2024-02-14T07:40:45;7.30;99.90
22629;DHT22;11481;53.694;9.910;2024-02-14T07:43:12;7.30;99.90
22629;DHT22;11481;53.694;9.910;2024-02-14T07:45:39;7.30;99.90
22629;DHT22;11481;53.694;9.910;2024-02-14T07:48:06;7.40;99.90
22629;DHT22;11481;53.694;9.910;2024-02-14T07:50:34;7.40;99.90
22629;DHT22;11481;53.694;9.910;2024-02-14T07:53:01;7.40;99.90
22629;DHT22;11481;53.694;9.910;2024-02-14T07:55:28;7.40;99.90
22629;DHT22;11481;53.694;9.910;2024-02-14T07:57:55;7.40;99.90
22629;DHT22;11481;53.694;9.910;2024-02-14T08:00:21;7.40;99.90
22629;DHT22;11481;53.694;9.910;2024-02-14T08:02:51;7.50;99.90
22629;DHT22;11481;53.694;9.910;2024-02-14T08:05:18;7.50;99.90
22629;DHT22;11481;53.694;9.910;2024-02-14T08:07:45;7.60;99.90
22629;DHT22;11481;53.694;9.910;2024-02-14T08:10:15;7.60;99.90
22629;DHT22;11481;53.694;9.910;2024-02-14T08:12:42;7.60;99.90
22629;DHT22;11481;53.694;9.910;2024-02-14T08:15:09;7.60;99.90
22629;DHT22;11481;53.694;9.910;2024-02-14T08:17:36;7.60;99.90
22629;DHT22;11481;53.694;9.910;2024-02-14T08:20:04;7.60;99.90
22629;DHT22;11481;53.694;9.910;2024-02-14T08:22:31;7.60;99.90
22629;DHT22;11481;53.694;9.910;2024-02-14T08:24:59;7.70;99.90
22629;DHT22;11481;53.694;9.910;2024-02-14T08:27:25;7.60;99.90
22629;DHT22;11481;53.694;9.910;2024-02-14T08:29:54;7.70;99.90
22629;DHT22;11481;53.694;9.910;2024-02-14T08:32:21;7.70;99.90
22629;DHT22;11481;53.694;9.910;2024-02-14T08:34:49;7.70;99.90
22629;DHT22;11481;53.694;9.910;2024-02-14T08:37:16;7.70;99.90
22629;DHT22;11481;53.694;9.910;2024-02-14T08:39:43;7.80;99.90
22629;DHT22;11481;53.694;9.910;2024-02-14T08:42:10;7.80;99.90
22629;DHT22;11481;53.694;9.910;2024-02-14T08:44:37;7.80;99.90
22629;DHT22;11481;53.694;9.910;2024-02-14T08:47:04;7.90;99.90
22629;DHT22;11481;53.694;9.910;2024-02-14T08:49:31;7.90;99.90
22629;DHT22;11481;53.694;9.910;2024-02-14T08:51:58;7.90;99.90
22629;DHT22;11481;53.694;9.910;2024-02-14T08:54:25;7.90;99.90
22629;DHT22;11481;53.694;9.910;2024-02-14T08:56:51;8.00;99.90
22629;DHT22;11481;53.694;9.910;2024-02-14T08:59:22;7.90;99.90
22629;DHT22;11481;53.694;9.910;2024-02-14T09:01:48;8.00;99.90
22629;DHT22;11481;53.694;9.910;2024-02-14T09:04:15;8.00;99.90
22629;DHT22;11481;53.694;9.910;2024-02-14T09:06:42;8.10;99.90
22629;DHT22;11481;53.694;9.910;2024-02-14T09:09:09;8.10;99.90
22629;DHT22;11481;53.694;9.910;2024-02-14T09:11:37;8.10;99.90
22629;DHT22;11481;53.694;9.910;2024-02-14T09:14:04;8.10;99.90
22629;DHT22;11481;53.694;9.910;2024-02-14T09:16:33;8.20;99.90
22629;DHT22;11481;53.694;9.910;2024-02-14T09:19:00;8.20;99.90
22629;DHT22;11481;53.694;9.910;2024-02-14T09:21:27;8.20;99.90
22629;DHT22;11481;53.694;9.910;2024-02-14T09:23:55;8.30;99.90
22629;DHT22;11481;53.694;9.910;2024-02-14T09:26:21;8.30;99.90
22629;DHT22;11481;53.694;9.910;2024-02-14T09:28:48;8.30;99.90
22629;DHT22;11481;53.694;9.910;2024-02-14T09:31:19;8.40;99.90
22629;DHT22;11481;53.694;9.910;2024-02-14T09:33:49;8.50;99.90
22629;DHT22;11481;53.694;9.910;2024-02-14T09:36:16;8.50;99.90
22629;DHT22;11481;53.694;9.910;2024-02-14T09:38:43;8.40;99.90
22629;DHT22;11481;53.694;9.910;2024-02-14T09:41:30;8.50;99.90
22629;DHT22;11481;53.694;9.910;2024-02-14T09:44:00;8.50;99.90
22629;DHT22;11481;53.694;9.910;2024-02-14T09:46:28;8.60;99.90
22629;DHT22;11481;53.694;9.910;2024-02-14T09:48:58;8.60;99.90
22629;DHT22;11481;53.694;9.910;2024-02-14T09:51:29;8.60;99.90
22629;DHT22;11481;53.694;9.910;2024-02-14T09:53:59;8.60;99.90
22629;DHT22;11481;53.694;9.910;2024-02-14T09:56:28;8.60;99.90
22629;DHT22;11481;53.694;9.910;2024-02-14T09:58:55;8.70;99.90
22629;DHT22;11481;53.694;9.910;2024-02-14T10:01:24;8.80;99.90
22629;DHT22;11481;53.694;9.910;2024-02-14T10:03:55;8.80;99.90
22629;DHT22;11481;53.694;9.910;2024-02-14T10:06:22;8.80;99.90
22629;DHT22;11481;53.694;9.910;2024-02-14T10:08:50;8.90;99.90
22629;DHT22;11481;53.694;9.910;2024-02-14T10:11:32;8.90;99.90
22629;DHT22;11481;53.694;9.910;2024-02-14T10:14:00;9.00;99.90
22629;DHT22;11481;53.694;9.910;2024-02-14T10:16:30;9.00;99.90
22629;DHT22;11481;53.694;9.910;2024-02-14T10:18:56;9.10;99.90
22629;DHT22;11481;53.694;9.910;2024-02-14T10:21:23;9.10;99.90
22629;DHT22;11481;53.694;9.910;2024-02-14T10:23:52;9.40;99.90
22629;DHT22;11481;53.694;9.910;2024-02-14T10:26:20;9.20;99.90
22629;DHT22;11481;53.694;9.910;2024-02-14T10:28:47;9.20;99.90
22629;DHT22;11481;53.694;9.910;2024-02-14T10:31:16;9.20;99.90
22629;DHT22;11481;53.694;9.910;2024-02-14T10:33:43;9.30;99.90
22629;DHT22;11481;53.694;9.910;2024-02-14T10:36:12;9.30;99.90
22629;DHT22;11481;53.694;9.910;2024-02-14T10:38:40;9.30;99.90
22629;DHT22;11481;53.694;9.910;2024-02-14T10:41:07;9.50;99.90
22629;DHT22;11481;53.694;9.910;2024-02-14T10:43:37;9.40;99.90
22629;DHT22;11481;53.694;9.910;2024-02-14T10:46:08;9.50;99.90
22629;DHT22;11481;53.694;9.910;2024-02-14T10:48:38;9.50;99.90
22629;DHT22;11481;53.694;9.910;2024-02-14T10:51:08;9.50;99.90
22629;DHT22;11481;53.694;9.910;2024-02-14T10:53:39;9.50;99.90
22629;DHT22;11481;53.694;9.910;2024-02-14T10:56:17;11.60;99.90
22629;DHT22;11481;53.694;9.910;2024-02-14T10:58:47;9.50;99.90
22629;DHT22;11481;53.694;9.910;2024-02-14T11:01:15;9.60;99.90
22629;DHT22;11481;53.694;9.910;2024-02-14T11:03:43;9.70;99.90
22629;DHT22;11481;53.694;9.910;2024-02-14T11:06:15;9.70;99.90
22629;DHT22;11481;53.694;9.910;2024-02-14T11:08:58;9.80;99.90
22629;DHT22;11481;53.694;9.910;2024-02-14T11:11:27;9.90;99.90
22629;DHT22;11481;53.694;9.910;2024-02-14T11:13:56;9.90;99.90
22629;DHT22;11481;53.694;9.910;2024-02-14T11:16:28;9.90;99.90
22629;DHT22;11481;53.694;9.910;2024-02-14T11:19:09;9.90;99.90
22629;DHT22;11481;53.694;9.910;2024-02-14T11:21:40;9.90;99.90
22629;DHT22;11481;53.694;9.910;2024-02-14T11:24:14;9.90;99.90
22629;DHT22;11481;53.694;9.910;2024-02-14T11:26:49;9.90;99.90
22629;DHT22;11481;53.694;9.910;2024-02-14T11:29:21;9.90;99.90
22629;DHT22;11481;53.694;9.910;2024-02-14T11:31:59;10.40;99.90
22629;DHT22;11481;53.694;9.910;2024-02-14T11:34:29;10.10;99.90
22629;DHT22;11481;53.694;9.910;2024-02-14T11:37:04;10.10;99.90
22629;DHT22;11481;53.694;9.910;2024-02-14T11:39:33;10.20;99.90
22629;DHT22;11481;53.694;9.910;2024-02-14T11:42:00;10.10;99.90
22629;DHT22;11481;53.694;9.910;2024-02-14T11:44:28;10.10;99.90
22629;DHT22;11481;53.694;9.910;2024-02-14T11:46:54;11.30;99.90
22629;DHT22;11481;53.694;9.910;2024-02-14T11:49:21;10.20;99.90
22629;DHT22;11481;53.694;9.910;2024-02-14T11:51:48;11.20;99.90
22629;DHT22;11481;53.694;9.910;2024-02-14T11:54:15;10.30;99.90
22629;DHT22;11481;53.694;9.910;2024-02-14T11:56:42;10.40;99.90
22629;DHT22;11481;53.694;9.910;2024-02-14T11:59:09;10.30;99.90
22629;DHT22;11481;53.694;9.910;2024-02-14T12:01:38;10.40;99.90
22629;DHT22;11481;53.694;9.910;2024-02-14T12:04:08;10.40;99.90
22629;DHT22;11481;53.694;9.910;2024-02-14T12:06:40;10.40;99.90
22629;DHT22;11481;53.694;9.910;2024-02-14T12:09:11;10.40;99.90
22629;DHT22;11481;53.694;9.910;2024-02-14T12:11:40;10.40;99.90
22629;DHT22;11481;53.694;9.910;2024-02-14T12:14:09;10.50;99.90
22629;DHT22;11481;53.694;9.910;2024-02-14T12:16:37;10.50;99.90
22629;DHT22;11481;53.694;9.910;2024-02-14T12:19:07;10.40;99.90
22629;DHT22;11481;53.694;9.910;2024-02-14T12:21:38;10.50;99.90
22629;DHT22;11481;53.694;9.910;2024-02-14T12:24:09;10.60;99.90
22629;DHT22;11481;53.694;9.910;2024-02-14T12:26:38;11.20;99.90
22629;DHT22;11481;53.694;9.910;2024-02-14T12:29:06;10.60;99.90
22629;DHT22;11481;53.694;9.910;2024-02-14T12:31:34;10.60;99.90
22629;DHT22;11481;53.694;9.910;2024-02-14T12:34:02;10.70;99.90
22629;DHT22;11481;53.694;9.910;2024-02-14T12:36:32;10.70;99.90
22629;DHT22;11481;53.694;9.910;2024-02-14T12:39:00;10.80;99.90
22629;DHT22;11481;53.694;9.910;2024-02-14T12:41:30;10.80;99.90
22629;DHT22;11481;53.694;9.910;2024-02-14T12:43:58;10.90;99.90
22629;DHT22;11481;53.694;9.910;2024-02-14T12:46:25;10.80;99.90
22629;DHT22;11481;53.694;9.910;2024-02-14T12:48:51;10.90;99.90
22629;DHT22;11481;53.694;9.910;2024-02-14T12:51:18;10.90;99.90
22629;DHT22;11481;53.694;9.910;2024-02-14T12:53:45;10.90;99.90
22629;DHT22;11481;53.694;9.910;2024-02-14T12:56:12;10.90;99.90
22629;DHT22;11481;53.694;9.910;2024-02-14T12:58:39;10.90;99.90
22629;DHT22;11481;53.694;9.910;2024-02-14T13:01:05;10.90;99.90
22629;DHT22;11481;53.694;9.910;2024-02-14T13:03:33;10.90;99.90
22629;DHT22;11481;53.694;9.910;2024-02-14T13:06:00;11.00;99.90
22629;DHT22;11481;53.694;9.910;2024-02-14T13:08:28;11.00;99.90
22629;DHT22;11481;53.694;9.910;2024-02-14T13:10:54;11.00;99.90
22629;DHT22;11481;53.694;9.910;2024-02-14T13:13:21;11.00;99.90
22629;DHT22;11481;53.694;9.910;2024-02-14T13:15:48;13.00;99.90
22629;DHT22;11481;53.694;9.910;2024-02-14T13:18:15;11.10;99.90
22629;DHT22;11481;53.694;9.910;2024-02-14T13:20:43;11.10;99.90
22629;DHT22;11481;53.694;9.910;2024-02-14T13:23:11;11.00;99.90
22629;DHT22;11481;53.694;9.910;2024-02-14T13:25:38;11.10;99.90
22629;DHT22;11481;53.694;9.910;2024-02-14T13:28:05;11.20;99.90
22629;DHT22;11481;53.694;9.910;2024-02-14T13:30:33;11.30;99.90
22629;DHT22;11481;53.694;9.910;2024-02-14T13:32:59;11.20;99.90
22629;DHT22;11481;53.694;9.910;2024-02-14T13:35:26;11.10;99.90
22629;DHT22;11481;53.694;9.910;2024-02-14T13:37:54;11.20;99.90
22629;DHT22;11481;53.694;9.910;2024-02-14T13:40:22;11.20;99.90
22629;DHT22;11481;53.694;9.910;2024-02-14T13:42:49;11.20;99.90
22629;DHT22;11481;53.694;9.910;2024-02-14T13:45:16;11.20;99.90
22629;DHT22;11481;53.694;9.910;2024-02-14T13:47:43;11.20;99.90
22629;DHT22;11481;53.694;9.910;2024-02-14T13:50:10;11.20;99.90
22629;DHT22;11481;53.694;9.910;2024-02-14T13:52:39;11.20;99.90
22629;DHT22;11481;53.694;9.910;2024-02-14T13:55:06;12.20;99.90
22629;DHT22;11481;53.694;9.910;2024-02-14T13:57:37;11.20;99.90
22629;DHT22;11481;53.694;9.910;2024-02-14T14:00:08;11.20;99.90
22629;DHT22;11481;53.694;9.910;2024-02-14T14:02:38;11.20;99.90
22629;DHT22;11481;53.694;9.910;2024-02-14T14:05:09;11.20;99.90
22629;DHT22;11481;53.694;9.910;2024-02-14T14:07:39;11.30;99.90
22629;DHT22;11481;53.694;9.910;2024-02-14T14:10:23;11.30;99.90
22629;DHT22;11481;53.694;9.910;2024-02-14T14:12:52;11.30;99.90
22629;DHT22;11481;53.694;9.910;2024-02-14T14:15:18;11.30;99.90
22629;DHT22;11481;53.694;9.910;2024-02-14T14:17:45;11.30;99.90
22629;DHT22;11481;53.694;9.910;2024-02-14T14:20:13;11.40;99.90
22629;DHT22;11481;53.694;9.910;2024-02-14T14:22:39;11.30;99.90
22629;DHT22;11481;53.694;9.910;2024-02-14T14:25:07;11.20;99.90
22629;DHT22;11481;53.694;9.910;2024-02-14T14:27:35;11.30;99.90
22629;DHT22;11481;53.694;9.910;2024-02-14T14:30:02;11.40;99.90
22629;DHT22;11481;53.694;9.910;2024-02-14T14:32:29;11.40;99.90
22629;DHT22;11481;53.694;9.910;2024-02-14T14:34:56;11.40;99.90
22629;DHT22;11481;53.694;9.910;2024-02-14T14:37:23;11.30;99.90
22629;DHT22;11481;53.694;9.910;2024-02-14T14:39:49;11.40;99.90
22629;DHT22;11481;53.694;9.910;2024-02-14T14:42:16;11.30;99.90
22629;DHT22;11481;53.694;9.910;2024-02-14T14:44:44;11.40;99.90
22629;DHT22;11481;53.694;9.910;2024-02-14T14:47:11;11.40;99.90
22629;DHT22;11481;53.694;9.910;2024-02-14T14:49:38;11.40;99.90
22629;DHT22;11481;53.694;9.910;2024-02-14T14:52:05;11.40;99.90
22629;DHT22;11481;53.694;9.910;2024-02-14T14:54:32;11.50;99.90
22629;DHT22;11481;53.694;9.910;2024-02-14T14:57:00;11.50;99.90
22629;DHT22;11481;53.694;9.910;2024-02-14T14:59:31;11.40;99.90
22629;DHT22;11481;53.694;9.910;2024-02-14T15:01:57;11.40;99.90
22629;DHT22;11481;53.694;9.910;2024-02-14T15:04:24;12.80;99.90
22629;DHT22;11481;53.694;9.910;2024-02-14T15:06:51;11.80;99.90
22629;DHT22;11481;53.694;9.910;2024-02-14T15:09:19;11.50;99.90
22629;DHT22;11481;53.694;9.910;2024-02-14T15:11:47;11.50;99.90
22629;DHT22;11481;53.694;9.910;2024-02-14T15:14:13;11.50;99.90
22629;DHT22;11481;53.694;9.910;2024-02-14T15:16:40;11.50;99.90
22629;DHT22;11481;53.694;9.910;2024-02-14T15:19:08;11.50;99.90
22629;DHT22;11481;53.694;9.910;2024-02-14T15:21:35;11.50;99.90
22629;DHT22;11481;53.694;9.910;2024-02-14T15:24:02;11.40;99.90
22629;DHT22;11481;53.694;9.910;2024-02-14T15:26:30;11.40;99.90
22629;DHT22;11481;53.694;9.910;2024-02-14T15:29:05;11.40;99.90
22629;DHT22;11481;53.694;9.910;2024-02-14T15:31:51;12.90;99.90
22629;DHT22;11481;53.694;9.910;2024-02-14T15:34:36;11.40;99.90
22629;DHT22;11481;53.694;9.910;2024-02-14T15:37:03;11.50;99.90
22629;DHT22;11481;53.694;9.910;2024-02-14T15:39:32;12.10;99.90
22629;DHT22;11481;53.694;9.910;2024-02-14T15:41:58;11.40;99.90
22629;DHT22;11481;53.694;9.910;2024-02-14T15:44:25;11.50;99.90
22629;DHT22;11481;53.694;9.910;2024-02-14T15:46:52;11.40;99.90